Time;durP1;ratioP1;P1;durP2;ratioP2;P2;SDS_P1;SDS_P2;PMS_P1;PMS_P2;Temp;Humidity;BMP_temperature;BMP_pressure;BME280_temperature;BME280_humidity;BME280_pressure;Samples;Min_cycle;Max_cycle;Signal;HPM_P1;HPM_P2
2022/08/17 00:00:44;;;;;;;5.70;5.10;;;;;;;27.49;47.12;100063.66;1801641;79;21481;-80
2022/08/17 00:03:31;;;;;;;6.08;5.10;;;;;;;27.50;47.11;100068.05;1801279;79;21116;-79
2022/08/17 00:06:10;;;;;;;8.15;5.10;;;;;;;27.49;47.12;100059.47;1801222;79;21469;-80
2022/08/17 00:08:46;;;;;;;5.83;5.17;;;;;;;27.48;47.13;100058.67;1801119;79;20938;-81
2022/08/17 00:11:21;;;;;;;5.90;5.10;;;;;;;27.48;47.13;100053.67;1800396;79;21643;-80
2022/08/17 00:13:50;;;;;;;6.00;5.20;;;;;;;27.48;47.14;100050.87;1801472;79;21072;-81
2022/08/17 00:16:21;;;;;;;5.78;5.17;;;;;;;27.48;47.15;100048.89;1801166;79;21045;-80
2022/08/17 00:18:47;;;;;;;6.40;5.40;;;;;;;27.48;47.16;100045.28;1779451;79;21049;-81
2022/08/17 00:21:15;;;;;;;6.10;5.20;;;;;;;27.47;47.16;100038.89;1801629;79;21776;-80
2022/08/17 00:23:42;;;;;;;8.33;5.28;;;;;;;27.48;47.18;100035.51;1801304;79;21510;-80
2022/08/17 00:26:08;;;;;;;6.80;5.30;;;;;;;27.48;47.20;100046.09;1801534;79;21045;-81
2022/08/17 00:28:35;;;;;;;6.75;5.22;;;;;;;27.47;47.19;100043.09;1801721;79;21063;-80
2022/08/17 00:31:02;;;;;;;5.95;5.35;;;;;;;27.46;47.22;100041.44;1800943;79;21090;-80
2022/08/17 00:33:30;;;;;;;5.30;4.80;;;;;;;27.46;47.22;100042.03;1800953;79;21062;-80
2022/08/17 00:35:57;;;;;;;6.25;5.15;;;;;;;27.48;47.24;100041.09;1800869;79;21004;-80
2022/08/17 00:38:24;;;;;;;9.08;4.97;;;;;;;27.48;47.24;100045.28;1800797;79;20999;-80
2022/08/17 00:40:57;;;;;;;6.90;5.30;;;;;;;27.48;47.25;100048.08;1801133;79;21042;-80
2022/08/17 00:43:34;;;;;;;6.42;5.10;;;;;;;27.47;47.26;100039.45;1781731;79;21510;-80
2022/08/17 00:46:05;;;;;;;5.87;5.25;;;;;;;27.47;47.23;100050.06;1800778;79;21446;-80
2022/08/17 00:48:31;;;;;;;;;;;;;;;27.47;47.25;100047.83;1803779;79;21049;-80
2022/08/17 00:51:17;;;;;;;5.87;5.20;;;;;;;27.46;47.22;100051.80;1801046;79;20149;-80
2022/08/17 00:53:48;;;;;;;5.78;5.08;;;;;;;27.45;47.23;100052.42;1801010;79;21615;-80
2022/08/17 00:56:19;;;;;;;5.90;5.00;;;;;;;27.44;47.23;100046.63;1806680;79;21018;-80
2022/08/17 00:58:46;;;;;;;6.47;4.60;;;;;;;27.45;47.24;100044.63;1799807;79;21046;-80
2022/08/17 01:01:12;;;;;;;6.45;5.47;;;;;;;27.45;47.26;100036.25;1795668;79;20964;-80
2022/08/17 01:03:39;;;;;;;5.70;5.10;;;;;;;27.44;47.27;100034.05;1775436;79;21533;-80
2022/08/17 01:06:06;;;;;;;6.10;5.42;;;;;;;27.44;47.30;100038.23;1805313;79;21623;-80
2022/08/17 01:08:32;;;;;;;6.53;5.30;;;;;;;27.45;47.32;100041.25;1808893;79;21508;-80
2022/08/17 01:11:04;;;;;;;5.90;5.17;;;;;;;27.45;47.30;100042.64;1803350;79;21937;-81
2022/08/17 01:13:35;;;;;;;6.45;5.37;;;;;;;27.45;47.33;100050.22;1802820;79;21070;-80
2022/08/17 01:16:13;;;;;;;5.80;5.10;;;;;;;27.45;47.32;100053.02;1803164;79;21604;-80
2022/08/17 01:18:40;;;;;;;7.47;5.37;;;;;;;27.44;47.30;100050.81;1802734;79;21620;-81
2022/08/17 01:21:12;;;;;;;6.00;5.40;;;;;;;27.45;47.30;100053.02;1803283;78;21437;-81
2022/08/17 01:23:41;;;;;;;6.12;5.30;;;;;;;27.44;47.31;100056.40;1803245;79;21224;-81
2022/08/17 01:26:07;;;;;;;6.17;5.22;;;;;;;27.46;47.33;100058.79;1802954;78;21469;-81
2022/08/17 01:28:34;;;;;;;5.72;5.12;;;;;;;27.46;47.34;100055.99;1803405;79;20999;-81
2022/08/17 01:31:02;;;;;;;6.65;5.17;;;;;;;27.44;47.34;100049.41;1803329;79;21035;-81
2022/08/17 01:33:29;;;;;;;6.65;5.45;;;;;;;27.45;47.34;100054.41;1780965;79;21494;-80
2022/08/17 01:35:55;;;;;;;5.42;4.85;;;;;;;27.46;47.34;100051.80;1803331;79;21996;-80
2022/08/17 01:38:23;;;;;;;6.83;5.15;;;;;;;27.46;47.32;100046.22;1802993;79;21050;-80
2022/08/17 01:40:53;;;;;;;6.22;5.33;;;;;;;27.46;47.34;100046.22;1802847;78;21346;-81
2022/08/17 01:43:26;;;;;;;6.00;5.12;;;;;;;27.45;47.34;100031.47;1803117;79;21494;-81
2022/08/17 01:45:55;;;;;;;7.33;5.08;;;;;;;27.45;47.35;100043.23;1803028;78;20987;-81
2022/08/17 01:48:22;;;;;;;5.95;5.35;;;;;;;27.45;47.35;100048.23;1803306;78;21067;-81
2022/08/17 01:50:50;;;;;;;5.85;4.83;;;;;;;27.45;47.38;100047.42;1803155;78;21059;-81
2022/08/17 01:53:25;;;;;;;5.97;4.80;;;;;;;27.45;47.36;100057.20;1802855;79;21326;-81
2022/08/17 01:56:07;;;;;;;5.37;4.83;;;;;;;27.45;47.38;100061.39;1802618;78;21019;-81
2022/08/17 01:58:34;;;;;;;6.00;5.30;;;;;;;27.45;47.38;100055.81;1803157;78;21054;-81
2022/08/17 02:01:01;;;;;;;7.80;5.33;;;;;;;27.45;47.38;100058.60;1803447;79;21114;-81
2022/08/17 02:03:28;;;;;;;6.35;5.30;;;;;;;27.45;47.39;100056.61;1803347;78;20986;-82
2022/08/17 02:05:54;;;;;;;5.83;5.00;;;;;;;27.45;47.40;100056.61;1803167;79;21022;-81
2022/08/17 02:08:21;;;;;;;5.58;4.70;;;;;;;27.44;47.40;100053.60;1803524;78;21093;-80
2022/08/17 02:10:48;;;;;;;6.08;5.35;;;;;;;27.45;47.40;100055.81;1803388;78;21074;-81
2022/08/17 02:13:14;;;;;;;6.33;5.20;;;;;;;27.45;47.40;100050.22;1803401;78;21890;-80
2022/08/17 02:15:41;;;;;;;6.47;4.90;;;;;;;27.44;47.42;100048.61;1803366;79;21057;-80
2022/08/17 02:18:09;;;;;;;5.80;4.87;;;;;;;27.45;47.42;100058.60;1803285;78;20987;-80
2022/08/17 02:20:37;;;;;;;6.05;5.03;;;;;;;27.45;47.41;100064.19;1803009;79;21572;-80
2022/08/17 02:23:04;;;;;;;6.35;5.15;;;;;;;27.44;47.45;100059.19;1803474;78;21070;-81
2022/08/17 02:25:31;;;;;;;6.62;5.17;;;;;;;27.43;47.43;100061.77;1803499;78;21210;-81
2022/08/17 02:27:58;;;;;;;5.50;5.00;;;;;;;27.44;47.43;100057.80;1803217;78;21434;-81
2022/08/17 02:30:25;;;;;;;6.10;5.03;;;;;;;27.44;47.44;100054.19;1803443;78;20994;-81
2022/08/17 02:32:52;;;;;;;5.83;5.22;;;;;;;27.45;47.46;100051.62;1803448;78;21021;-81
2022/08/17 02:35:19;;;;;;;6.60;5.37;;;;;;;27.44;47.44;100045.81;1803194;78;21034;-81
2022/08/17 02:37:45;;;;;;;5.75;4.95;;;;;;;27.44;47.46;100050.81;1803545;78;21070;-81
2022/08/17 02:40:12;;;;;;;5.70;4.97;;;;;;;27.44;47.46;100050.00;1803252;78;21101;-82
2022/08/17 02:42:40;;;;;;;6.80;5.03;;;;;;;27.44;47.47;100055.59;1772120;79;21571;-81
2022/08/17 02:45:14;;;;;;;6.72;5.10;;;;;;;27.44;47.48;100048.61;1803463;79;21043;-80
2022/08/17 02:47:40;;;;;;;6.15;5.25;;;;;;;27.44;47.48;100040.23;1803195;78;21086;-81
2022/08/17 02:50:08;;;;;;;6.33;4.78;;;;;;;27.43;47.49;100046.41;1803529;79;21125;-81
2022/08/17 02:52:37;;;;;;;5.80;5.20;;;;;;;27.44;47.48;100049.41;1803332;78;21027;-80
2022/08/17 02:55:05;;;;;;;5.55;4.85;;;;;;;27.44;47.51;100044.41;1800563;78;21018;-80
2022/08/17 02:57:32;;;;;;;6.45;5.37;;;;;;;27.43;47.51;100049.20;1795529;79;21042;-81
2022/08/17 02:59:58;;;;;;;6.15;5.17;;;;;;;27.44;47.53;100054.19;1795662;79;21086;-80
2022/08/17 03:02:24;;;;;;;5.92;5.25;;;;;;;27.43;47.51;100049.20;1775285;79;21058;-80
2022/08/17 03:04:51;;;;;;;7.17;5.53;;;;;;;27.44;47.51;100050.00;1795500;79;21142;-80
2022/08/17 03:07:19;;;;;;;7.00;5.17;;;;;;;27.44;47.53;100048.61;1795408;79;21074;-80
2022/08/17 03:09:45;;;;;;;5.65;5.05;;;;;;;27.43;47.54;100053.39;1795257;79;21170;-80
2022/08/17 03:12:13;;;;;;;6.42;4.90;;;;;;;27.43;47.53;100057.58;1795545;79;21537;-80
2022/08/17 03:14:46;;;;;;;5.47;4.92;;;;;;;27.43;47.55;100061.77;1795652;79;21157;-80
2022/08/17 03:17:12;;;;;;;5.67;5.08;;;;;;;27.44;47.55;100065.37;1795124;79;21054;-81
2022/08/17 03:19:39;;;;;;;6.03;5.25;;;;;;;27.42;47.54;100065.73;1795687;79;20999;-81
2022/08/17 03:22:06;;;;;;;5.22;4.72;;;;;;;27.44;47.55;100075.14;1795932;79;21066;-81
2022/08/17 03:24:33;;;;;;;5.58;4.85;;;;;;;27.43;47.56;100081.33;1775590;79;21074;-80
2022/08/17 03:27:05;;;;;;;7.92;5.28;;;;;;;27.44;47.56;100074.55;1795542;79;22131;-81
2022/08/17 03:29:31;;;;;;;5.45;4.80;;;;;;;27.43;47.57;100074.92;1791641;79;21390;-81
2022/08/17 03:31:58;;;;;;;6.28;4.97;;;;;;;27.43;47.57;100077.72;1770567;79;21068;-81
2022/08/17 03:34:24;;;;;;;6.17;5.00;;;;;;;27.44;47.56;100080.73;1801638;79;20990;-81
2022/08/17 03:36:51;;;;;;;7.58;5.00;;;;;;;27.43;47.58;100091.10;1803805;79;21041;-81
2022/08/17 03:39:17;;;;;;;6.53;5.12;;;;;;;27.42;47.60;100093.67;1803372;79;21168;-81
2022/08/17 03:41:43;;;;;;;5.92;5.22;;;;;;;27.42;47.60;100093.67;1803526;79;20990;-80
2022/08/17 03:44:10;;;;;;;5.70;4.95;;;;;;;27.43;47.60;100088.89;1803579;79;21491;-80
2022/08/17 03:57:37;;;;;;;7.03;5.37;;;;;;;27.42;47.57;100088.67;1841671;77;21349;-80
2022/08/17 04:00:04;;;;;;;6.03;5.22;;;;;;;27.41;47.61;100090.69;1841986;77;21516;-81
2022/08/17 04:02:32;;;;;;;7.92;5.08;;;;;;;27.41;47.61;100092.09;1842046;77;21103;-81
2022/08/17 04:04:58;;;;;;;5.85;5.17;;;;;;;27.41;47.63;100084.30;1841666;77;21542;-80
2022/08/17 04:07:26;;;;;;;5.70;4.65;;;;;;;27.41;47.64;100086.50;1783067;77;21032;-80
2022/08/17 04:09:53;;;;;;;6.30;5.50;;;;;;;27.42;47.64;100094.27;1842144;77;21529;-81
2022/08/17 04:12:21;;;;;;;6.17;5.20;;;;;;;27.41;47.65;100089.30;1841729;77;20973;-81
2022/08/17 04:14:48;;;;;;;5.55;4.97;;;;;;;27.40;47.65;100091.87;1842035;77;21028;-80
2022/08/17 04:17:14;;;;;;;5.08;4.58;;;;;;;27.41;47.68;100093.48;1841834;77;21101;-80
2022/08/17 04:19:40;;;;;;;7.12;5.15;;;;;;;27.41;47.68;100096.88;1841634;77;21091;-80
2022/08/17 04:22:07;;;;;;;5.83;4.67;;;;;;;27.41;47.69;100101.87;1841986;77;21087;-80
2022/08/17 04:24:33;;;;;;;8.08;5.00;;;;;;;27.42;47.70;100098.45;1841937;77;21500;-80
2022/08/17 04:27:00;;;;;;;5.30;4.80;;;;;;;27.42;47.68;100099.85;1841457;77;21024;-81
2022/08/17 04:29:27;;;;;;;6.28;4.97;;;;;;;27.42;47.70;100101.25;1841914;77;21207;-81
2022/08/17 04:31:53;;;;;;;5.72;5.00;;;;;;;27.42;47.69;100108.23;1841779;77;20998;-81
2022/08/17 04:34:20;;;;;;;6.92;5.33;;;;;;;27.42;47.70;100106.84;1841786;77;21490;-81
2022/08/17 04:36:46;;;;;;;6.62;5.22;;;;;;;27.42;47.70;100102.05;1842124;77;21484;-81
2022/08/17 04:39:12;;;;;;;8.15;5.83;;;;;;;27.45;47.69;100101.91;1841992;77;20993;-81
2022/08/17 04:44:30;;;;;;;7.33;5.72;;;;;;;27.42;47.70;100103.45;1841492;77;21013;-81
2022/08/17 04:46:56;;;;;;;7.60;5.42;;;;;;;27.43;47.69;100107.05;1841820;77;21060;-81
2022/08/17 04:49:22;;;;;;;8.08;5.85;;;;;;;27.43;47.69;100098.67;1813971;77;20996;-81
2022/08/17 04:51:49;;;;;;;10.32;6.62;;;;;;;27.42;47.72;100096.47;1808218;79;21068;-81
2022/08/17 04:54:20;;;;;;;7.00;5.45;;;;;;;27.43;47.72;100094.48;1808565;78;21091;-81
2022/08/17 04:56:46;;;;;;;10.23;5.75;;;;;;;27.42;47.78;100095.07;1763466;80;21478;-81
2022/08/17 04:59:17;;;;;;;9.05;6.12;;;;;;;27.41;47.80;100101.06;1733162;81;20975;-81
2022/08/17 05:01:45;;;;;;;8.43;6.10;;;;;;;27.38;47.90;100092.02;1732569;82;21118;-81
2022/08/17 05:04:18;;;;;;;10.55;6.97;;;;;;;27.36;47.93;100094.41;1732973;81;21592;-81
2022/08/17 05:06:44;;;;;;;9.05;6.33;;;;;;;27.32;48.06;100101.94;1732980;81;21299;-81
2022/08/17 05:09:11;;;;;;;10.98;6.95;;;;;;;27.24;48.22;100103.23;1732720;81;21042;-81
2022/08/17 05:11:37;;;;;;;10.43;8.33;;;;;;;27.23;48.29;100107.81;1733064;81;21467;-81
2022/08/17 05:14:03;;;;;;;11.35;7.47;;;;;;;27.22;48.37;100107.01;1733054;82;21011;-81
2022/08/17 05:16:30;;;;;;;16.55;8.73;;;;;;;27.19;48.49;100110.57;1715891;81;21022;-82
2022/08/17 05:18:57;;;;;;;9.35;6.47;;;;;;;27.17;48.55;100117.11;1720507;82;21121;-83
2022/08/17 05:21:24;;;;;;;10.30;7.80;;;;;;;27.15;48.65;100115.30;1743243;81;21595;-81
2022/08/17 05:23:51;;;;;;;7.92;6.15;;;;;;;27.15;48.68;100117.28;1742861;82;21041;-81
2022/08/17 05:26:19;;;;;;;9.88;7.10;;;;;;;27.15;48.73;100113.09;1743188;82;21041;-81
2022/08/17 05:28:46;;;;;;;11.85;6.58;;;;;;;27.16;48.73;100114.69;1743255;82;21123;-81
2022/08/17 05:31:12;;;;;;;7.75;6.55;;;;;;;27.14;48.75;100117.06;1743024;82;21713;-81
2022/08/17 05:33:40;;;;;;;10.05;8.18;;;;;;;27.16;48.77;100120.27;1743165;82;21065;-81
2022/08/17 05:36:09;;;;;;;12.33;8.33;;;;;;;27.16;48.80;100116.89;1743250;81;21550;-82
2022/08/17 05:38:36;;;;;;;9.20;7.30;;;;;;;27.16;48.87;100118.87;1742967;82;21052;-82
2022/08/17 05:41:06;;;;;;;9.83;7.85;;;;;;;27.14;48.93;100126.84;1743222;82;21159;-82
2022/08/17 05:43:34;;;;;;;8.70;6.63;;;;;;;27.12;48.97;100116.62;1743335;82;21288;-81
2022/08/17 05:46:30;;;;;;;16.80;8.05;;;;;;;27.06;48.97;100113.38;1742873;82;21721;-82
2022/08/17 05:49:02;;;;;;;15.23;9.03;;;;;;;27.11;49.07;100111.66;1743483;82;21555;-82
2022/08/17 05:52:09;;;;;;;8.93;7.35;;;;;;;27.09;49.11;100114.02;1671545;84;21693;-81
2022/08/17 05:54:56;;;;;;;9.08;6.55;;;;;;;27.05;49.23;100112.35;1710322;81;21121;-81
2022/08/17 05:57:47;;;;;;;10.13;6.67;;;;;;;27.04;49.26;100123.30;1717119;81;21190;-81
2022/08/17 06:00:28;;;;;;;13.03;6.85;;;;;;;27.04;49.30;100125.50;1717388;82;21483;-82
2022/08/17 06:03:28;;;;;;;12.75;7.55;;;;;;;27.05;49.33;100119.33;1715575;82;21611;-81
2022/08/17 06:06:02;;;;;;;13.38;7.37;;;;;;;27.06;49.41;100122.34;1729384;82;21079;-81
2022/08/17 06:08:40;;;;;;;11.93;8.10;;;;;;;27.06;49.39;100134.32;1724854;82;21060;-82
2022/08/17 06:11:29;;;;;;;11.95;7.25;;;;;;;27.06;49.46;100127.34;1723222;82;21120;-81
2022/08/17 06:14:34;;;;;;;8.33;6.90;;;;;;;27.07;49.54;100129.55;1668275;84;21079;-81
2022/08/17 06:17:09;;;;;;;12.82;8.13;;;;;;;27.07;49.55;100133.14;1750155;81;21045;-81
2022/08/17 06:20:00;;;;;;;18.48;8.35;;;;;;;27.08;49.54;100135.31;1771404;80;21593;-82
2022/08/17 06:22:31;;;;;;;14.55;7.60;;;;;;;27.08;49.54;100140.31;1750003;80;21103;-81
2022/08/17 06:25:18;;;;;;;12.00;7.95;;;;;;;27.07;49.56;100142.11;1763516;80;21619;-83
2022/08/17 06:27:55;;;;;;;15.83;7.55;;;;;;;27.06;49.57;100138.51;1741413;80;21055;-83
2022/08/17 06:30:25;;;;;;;17.50;7.85;;;;;;;27.07;49.60;100143.51;1747970;80;21458;-83
2022/08/17 06:32:52;;;;;;;13.55;7.87;;;;;;;27.08;49.63;100138.11;1744519;80;21689;-83
2022/08/17 06:35:26;;;;;;;15.60;7.28;;;;;;;27.08;49.60;100143.70;1735519;82;21073;-83
2022/08/17 06:38:22;;;;;;;16.12;7.20;;;;;;;27.08;49.69;100143.11;1718430;81;21109;-81
2022/08/17 06:40:54;;;;;;;16.15;7.15;;;;;;;27.08;49.63;100145.91;1692028;84;21072;-81
2022/08/17 06:43:52;;;;;;;15.95;7.25;;;;;;;27.07;49.63;100143.51;1729665;81;21036;-78
2022/08/17 06:46:47;;;;;;;12.15;6.65;;;;;;;27.09;49.62;100147.52;1742335;80;21475;-78
2022/08/17 06:49:25;;;;;;;11.80;6.62;;;;;;;27.10;49.58;100145.53;1772933;80;21622;-78
2022/08/17 06:52:12;;;;;;;15.83;7.10;;;;;;;27.09;49.49;100145.31;1739833;80;21172;-77
2022/08/17 06:55:08;;;;;;;10.75;6.75;;;;;;;27.08;49.47;100144.50;1725123;80;21496;-79
2022/08/17 06:57:48;;;;;;;11.28;5.92;;;;;;;27.08;49.42;100137.52;1746818;81;21034;-78
2022/08/17 07:00:17;;;;;;;;;;;;;;;27.10;49.41;100142.74;1698706;82;21878;-80
2022/08/17 07:03:06;;;;;;;9.35;6.58;;;;;;;27.11;49.36;100145.17;1710069;81;20228;-79
2022/08/17 07:05:55;;;;;;;12.18;6.08;;;;;;;27.11;49.33;100140.17;1706525;81;22299;-80
2022/08/17 07:08:32;;;;;;;9.83;6.80;;;;;;;27.12;49.28;100142.56;1706933;80;21080;-78
2022/08/17 07:11:05;;;;;;;10.98;6.60;;;;;;;27.13;49.22;100137.79;1728806;81;21139;-78
2022/08/17 07:14:06;;;;;;;7.67;6.33;;;;;;;27.14;49.15;100138.81;1734026;81;21072;-82
2022/08/17 07:16:45;;;;;;;8.53;5.58;;;;;;;27.16;49.05;100142.61;1733831;80;21673;-83
2022/08/17 07:19:12;;;;;;;7.33;5.72;;;;;;;27.16;48.92;100146.21;1715862;82;21204;-82
2022/08/17 07:22:17;;;;;;;8.00;5.65;;;;;;;27.18;48.89;100138.86;1724649;81;21302;-81
2022/08/17 07:24:49;;;;;;;9.73;5.78;;;;;;;27.20;48.76;100146.28;1732282;82;21114;-81
2022/08/17 07:27:32;;;;;;;8.55;5.67;;;;;;;27.21;48.68;100149.27;1713133;82;21689;-82
2022/08/17 07:30:24;;;;;;;9.23;6.12;;;;;;;27.21;48.62;100147.28;1717769;82;21665;-81
2022/08/17 07:32:58;;;;;;;8.53;5.62;;;;;;;27.22;48.55;100146.11;1673532;84;21191;-82
2022/08/17 07:35:40;;;;;;;8.20;6.17;;;;;;;27.25;48.51;100147.33;1734129;81;21060;-82
2022/08/17 07:38:30;;;;;;;8.13;5.50;;;;;;;27.27;48.45;100142.18;1747457;79;21055;-80
2022/08/17 07:41:02;;;;;;;9.43;6.17;;;;;;;27.28;48.38;100144.39;1785396;79;21043;-80
2022/08/17 07:43:43;;;;;;;10.48;5.75;;;;;;;27.28;48.34;100146.59;1777125;79;21056;-79
2022/08/17 07:49:15;;;;;;;6.62;5.45;;;;;;;27.31;48.27;100145.02;1729294;80;21060;-79
2022/08/17 07:51:50;;;;;;;8.58;5.72;;;;;;;27.32;48.07;100140.45;1799980;79;21092;-79
2022/08/17 07:54:21;;;;;;;6.28;5.08;;;;;;;27.33;47.86;100139.25;1776206;79;21092;-78
2022/08/17 07:57:14;;;;;;;9.45;6.12;;;;;;;27.35;47.79;100142.48;1782240;78;21033;-79
2022/08/17 08:00:00;;;;;;;7.22;6.25;;;;;;;27.37;47.73;100137.92;1790199;78;22017;-80
2022/08/17 08:02:37;;;;;;;5.87;5.28;;;;;;;27.38;47.71;100133.34;1784680;79;21046;-79
2022/08/17 08:05:26;;;;;;;9.70;6.25;;;;;;;27.40;47.65;100137.97;1788706;79;21283;-79
2022/08/17 08:07:57;;;;;;;8.50;6.08;;;;;;;27.42;47.57;100134.18;1820882;77;21505;-79
2022/08/17 08:10:34;;;;;;;9.98;5.90;;;;;;;27.43;47.47;100134.41;1799755;78;21508;-79
2022/08/17 08:13:14;;;;;;;6.97;5.50;;;;;;;27.44;47.45;100131.83;1785697;78;21127;-78
2022/08/17 08:15:47;;;;;;;10.63;5.73;;;;;;;27.46;47.29;100131.42;1802831;78;21043;-80
2022/08/17 08:18:36;;;;;;;9.45;5.97;;;;;;;27.49;47.01;100127.34;1811149;77;21596;-78
2022/08/17 08:21:27;;;;;;;7.40;6.00;;;;;;;27.53;46.80;100124.58;1816580;77;21539;-79
2022/08/17 08:24:14;;;;;;;8.58;5.67;;;;;;;27.57;46.58;100127.63;1792566;79;21054;-78
2022/08/17 08:26:55;;;;;;;7.58;5.62;;;;;;;27.58;46.70;100125.03;1787060;78;21727;-79
2022/08/17 08:29:33;;;;;;;6.92;5.15;;;;;;;27.60;46.61;100124.06;1809917;78;21170;-79
2022/08/17 08:32:19;;;;;;;6.25;5.65;;;;;;;27.61;46.54;100122.08;1817575;78;20947;-80
2022/08/17 08:35:00;;;;;;;8.98;6.10;;;;;;;27.62;46.41;100119.50;1800715;78;21591;-79
2022/08/17 08:37:54;;;;;;;7.28;5.92;;;;;;;27.62;46.15;100124.50;1799948;78;21558;-79
2022/08/17 08:40:50;;;;;;;7.33;5.83;;;;;;;27.62;45.98;100118.10;1800760;78;21490;-79
2022/08/17 08:43:43;;;;;;;7.62;5.35;;;;;;;27.63;45.82;100112.70;1798247;77;21058;-79
2022/08/17 08:46:35;;;;;;;6.95;5.47;;;;;;;27.66;45.74;100100.78;1807040;77;20986;-80
2022/08/17 08:49:23;;;;;;;6.47;5.28;;;;;;;27.68;45.68;100103.39;1806527;78;21071;-79
2022/08/17 08:51:58;;;;;;;6.65;5.25;;;;;;;27.71;45.69;100109.61;1810269;78;21044;-79
2022/08/17 08:54:41;;;;;;;9.00;5.42;;;;;;;27.75;45.53;100100.48;1791359;79;21071;-79
2022/08/17 08:57:22;;;;;;;9.18;5.92;;;;;;;27.80;45.39;100102.91;1799093;78;21065;-79
2022/08/17 09:00:02;;;;;;;8.45;5.53;;;;;;;27.81;45.35;100099.73;1811560;79;21023;-80
2022/08/17 09:02:46;;;;;;;9.30;5.60;;;;;;;27.82;45.36;100092.16;1806738;78;21068;-78
2022/08/17 09:05:52;;;;;;;7.97;5.03;;;;;;;27.81;45.32;100088.55;1807834;77;21111;-79
2022/08/17 09:08:27;;;;;;;10.65;5.08;;;;;;;27.82;45.29;100097.16;1794175;78;21269;-78
2022/08/17 09:11:11;;;;;;;6.28;5.35;;;;;;;27.81;45.46;100101.13;1796050;78;21123;-78
2022/08/17 09:13:55;;;;;;;9.65;5.03;;;;;;;27.80;45.46;100105.11;1800037;77;21059;-78
2022/08/17 09:16:39;;;;;;;10.70;5.50;;;;;;;27.80;45.46;100103.71;1809097;77;21091;-79
2022/08/17 09:19:10;;;;;;;6.17;4.83;;;;;;;27.81;45.30;100098.34;1718181;80;21128;-79
2022/08/17 09:21:42;;;;;;;7.00;5.22;;;;;;;27.83;45.27;100102.97;1805190;79;22061;-78
2022/08/17 09:24:53;;;;;;;5.80;5.20;;;;;;;27.83;45.42;100091.78;1802670;79;21036;-79
2022/08/17 09:27:21;;;;;;;6.30;5.50;;;;;;;27.83;45.48;100088.18;1780086;79;21555;-79
2022/08/17 09:29:56;;;;;;;6.85;4.83;;;;;;;27.82;45.42;100085.98;1797839;78;21032;-78
2022/08/17 09:32:44;;;;;;;5.95;4.80;;;;;;;27.85;45.27;100083.80;1804890;79;21045;-79
2022/08/17 09:35:24;;;;;;;7.70;5.03;;;;;;;27.86;45.33;100089.61;1803932;79;21073;-79
2022/08/17 09:38:14;;;;;;;5.40;4.53;;;;;;;27.86;45.32;100086.81;1796607;78;21088;-79
2022/08/17 09:41:02;;;;;;;6.05;4.78;;;;;;;27.87;45.23;100082.03;1813397;77;21477;-81
2022/08/17 09:43:52;;;;;;;8.38;4.80;;;;;;;27.86;45.40;100089.61;1763281;78;21483;-79
2022/08/17 09:46:27;;;;;;;5.72;5.12;;;;;;;27.86;45.47;100086.81;1807224;77;21104;-79
2022/08/17 09:48:58;;;;;;;5.45;4.85;;;;;;;27.86;45.42;100088.21;1807664;77;22104;-79
2022/08/17 09:51:39;;;;;;;5.95;4.70;;;;;;;27.87;45.46;100086.22;1803991;79;21029;-79
2022/08/17 09:54:08;;;;;;;;;;;;;;;27.87;45.40;100089.83;1805075;79;21084;-79
2022/08/17 09:57:04;;;;;;;5.20;4.70;;;;;;;27.89;45.33;100090.23;1782727;79;20529;-79
2022/08/17 09:59:43;;;;;;;6.67;4.83;;;;;;;27.90;45.36;100082.06;1799299;79;21088;-80
2022/08/17 10:02:54;;;;;;;5.90;5.17;;;;;;;27.92;45.25;100093.64;1805519;79;21585;-79
2022/08/17 10:05:45;;;;;;;6.62;4.97;;;;;;;27.92;45.20;100086.66;1810629;78;21567;-78
2022/08/17 10:08:30;;;;;;;5.35;4.78;;;;;;;27.93;45.19;100093.05;1809521;77;21031;-79
2022/08/17 10:12:14;;;;;;;6.97;4.87;;;;;;;27.93;45.13;100085.47;1787412;77;21033;-79
2022/08/17 10:14:03;;;;;;;6.40;5.20;;;;;;;27.93;45.11;100088.27;1796943;77;21608;-79
2022/08/17 10:16:39;;;;;;;5.45;4.72;;;;;;;27.92;45.14;100074.70;1800357;79;21894;-79
2022/08/17 10:19:41;;;;;;;4.47;4.00;;;;;;;27.91;45.11;100079.48;1787100;78;21052;-80
2022/08/17 10:27:50;;;;;;;6.12;4.67;;;;;;;27.91;45.14;100082.27;1769897;79;21029;-80
2022/08/17 10:30:19;;;;;;;6.40;5.15;;;;;;;27.92;45.04;100074.08;1805748;79;21979;-79
2022/08/17 10:32:59;;;;;;;8.20;5.00;;;;;;;27.94;44.98;100074.51;1803614;79;21096;-79
2022/08/17 10:35:53;;;;;;;7.97;5.08;;;;;;;27.94;45.01;100073.70;1803593;78;21047;-80
2022/08/17 10:38:40;;;;;;;5.60;4.85;;;;;;;27.94;45.16;100067.52;1833328;78;21136;-80
2022/08/17 10:41:38;;;;;;;5.85;4.70;;;;;;;27.94;45.26;100061.12;1801225;78;21262;-80
2022/08/17 10:44:24;;;;;;;6.40;4.90;;;;;;;27.92;45.29;100062.89;1793972;78;21571;-80
2022/08/17 10:47:13;;;;;;;9.33;4.87;;;;;;;27.92;45.24;100064.29;1813157;78;21018;-79
2022/08/17 10:49:46;;;;;;;5.35;4.70;;;;;;;27.94;45.04;100052.73;1808393;78;21060;-79
2022/08/17 10:52:29;;;;;;;7.00;4.50;;;;;;;27.94;44.94;100052.14;1810296;77;21150;-80
2022/08/17 10:55:07;;;;;;;7.87;4.85;;;;;;;27.94;44.82;100054.13;1797921;79;21031;-79
2022/08/17 10:57:38;;;;;;;4.95;4.45;;;;;;;27.95;44.77;100055.16;1771710;79;21249;-81
2022/08/17 11:00:16;;;;;;;6.12;4.42;;;;;;;27.95;44.85;100053.75;1768334;80;21061;-80
2022/08/17 11:02:54;;;;;;;5.53;4.92;;;;;;;27.96;44.87;100051.77;1762307;81;21042;-80
2022/08/17 11:06:00;;;;;;;6.17;4.28;;;;;;;27.95;44.89;100053.75;1753966;81;21044;-79
2022/08/17 11:08:56;;;;;;;5.10;4.60;;;;;;;27.96;44.89;100045.58;1749565;80;21096;-80
2022/08/17 11:11:49;;;;;;;4.67;4.17;;;;;;;27.97;44.98;100047.76;1763136;81;21918;-80
2022/08/17 11:14:43;;;;;;;6.40;4.42;;;;;;;27.97;45.15;100042.16;1758682;80;21090;-80
2022/08/17 11:17:28;;;;;;;5.95;4.95;;;;;;;27.96;45.22;100041.39;1759380;80;21049;-81
2022/08/17 11:20:33;;;;;;;5.70;4.90;;;;;;;27.96;45.29;100042.78;1772858;80;21116;-80
2022/08/17 11:23:24;;;;;;;6.35;4.70;;;;;;;27.95;45.31;100033.37;1748365;80;21036;-80
2022/08/17 11:25:56;;;;;;;5.10;4.30;;;;;;;27.93;45.46;100035.15;1769852;80;21542;-80
2022/08/17 11:28:27;;;;;;;6.40;4.37;;;;;;;27.95;45.59;100033.37;1757994;81;21137;-79
2022/08/17 11:31:00;;;;;;;6.45;4.42;;;;;;;27.95;45.60;100031.98;1732979;81;21103;-80
2022/08/17 11:33:44;;;;;;;5.83;4.75;;;;;;;27.94;45.60;100029.77;1739191;81;21084;-80
2022/08/17 11:36:37;;;;;;;5.08;4.35;;;;;;;27.98;45.42;100027.81;1741099;81;21592;-79
2022/08/17 11:39:42;;;;;;;5.60;5.08;;;;;;;27.98;45.55;100027.81;1768335;80;21504;-80
2022/08/17 11:42:36;;;;;;;6.10;4.62;;;;;;;27.97;45.58;100024.80;1754751;80;21128;-80
2022/08/17 11:45:28;;;;;;;5.00;4.50;;;;;;;27.99;45.58;100030.02;1766164;81;21058;-80
2022/08/17 11:54:04;;;;;;;6.22;4.53;;;;;;;28.00;45.53;100012.86;1744035;81;21187;-79
2022/08/17 11:56:54;;;;;;;5.72;4.62;;;;;;;27.99;45.55;100011.84;1761307;80;21069;-79
2022/08/17 11:59:35;;;;;;;5.50;4.90;;;;;;;27.98;45.51;100011.03;1706722;80;21705;-79
2022/08/17 12:02:34;;;;;;;7.10;4.87;;;;;;;27.97;45.54;100005.22;1755366;81;21068;-79
2022/08/17 12:05:18;;;;;;;6.30;5.12;;;;;;;27.97;45.49;100006.63;1775314;80;21131;-79
2022/08/17 12:08:06;;;;;;;7.28;5.22;;;;;;;27.97;45.36;100003.83;1775895;80;21190;-79
2022/08/17 12:10:35;;;;;;;5.70;4.90;;;;;;;27.99;45.25;99996.46;1751953;80;21101;-80
2022/08/17 12:13:13;;;;;;;5.50;4.80;;;;;;;27.99;45.22;99996.46;1757810;80;21077;-80
2022/08/17 12:15:48;;;;;;;8.43;4.95;;;;;;;27.98;45.20;99995.66;1749032;79;21056;-80
2022/08/17 12:18:22;;;;;;;8.13;5.10;;;;;;;27.99;45.29;99993.08;1786991;78;21097;-79
2022/08/17 12:21:02;;;;;;;6.83;4.92;;;;;;;27.98;45.32;99994.84;1739403;80;23212;-79
2022/08/17 12:24:05;;;;;;;6.35;4.92;;;;;;;27.98;45.22;99994.26;1727831;82;21533;-80
2022/08/17 12:26:33;;;;;;;6.70;4.65;;;;;;;27.98;45.15;99985.87;1740983;80;21076;-82
2022/08/17 12:29:09;;;;;;;5.55;5.00;;;;;;;28.01;45.06;99989.28;1740713;82;21737;-80
2022/08/17 12:31:43;;;;;;;6.00;4.80;;;;;;;28.01;44.96;99981.48;1719212;80;21083;-79
2022/08/17 12:34:31;;;;;;;5.67;4.62;;;;;;;28.02;44.86;99986.70;1753681;80;21690;-80